Aviation Digital Data Service (ADDS)

Output produced by METARs form (0809 UTC 24 May 2018)
found at http://www.aviationweather.gov/adds/metars/
 
NZAA 240800Z AUTO 28012KT 9999 FEW050/// BKN085/// 14/12 Q1006 TEMPO 5000 SHRA
TAF NZAA 240519Z 2406/2506 29015G25KT 9999 -SHRA BKN040 
     TEMPO 2406/2412 5000 SHRA FEW020TCU 
     BECMG 2409/2411 30010KT 
     TEMPO 2420/2506 5000 SHRA SCT020TCU 
     PROB30 
     TEMPO 2420/2500 27020G45KT 3000 TSRA FEW020CB 
     BECMG 2422/2500 24015KT
       
NZCH 240800Z AUTO 31011KT 280V340 9999 NCD 09/M01 Q0989 NOSIG
TAF NZCH 240519Z 2406/2506 32010KT CAVOK 
     BECMG 2412/2414 26005KT 
     FM250200 22015G25KT 9999 -SHRA BKN035
       
TAF AMD NZQN 240056Z 2400/2412 02008KT 9999 -SHRA SCT030 BKN050 
     TEMPO 2400/2406 6000 SHRAGS FEW030TCU 
     BECMG 2401/2403 25010KT 
     FM240700 04010KT 9999 -SHRASN FEW030 SCT050
       
NZWN 240800Z AUTO 33013KT 9999 NCD 13/07 Q0994 NOSIG
TAF NZWN 240519Z 2406/2506 32020G30KT 9999 -SHRA FEW030 
     TEMPO 2406/2417 5000 SHRA SCT030TCU 
     PROB30 2406/2410 2000 +SHRA FEW020CB 
     BECMG 2412/2414 32015KT 
     BECMG 2500/2502 19015G25KT